Tacoma, WA (98403)

5:22 AM PST on February 14, 2016 (GMT -0800)
APRSWXNET | | Change Station
CLOSE
Current Station
Personal Weather Station
Location: Tacoma, WA
Elevation: 275 ft
Nearby Weather Stations

Elev 275 ft 47.26 °N, 122.47 °W | Updated 25 minutes ago

Overcast
Overcast
48 °F
Feels Like 48 °F
N
1
Wind Variable Wind from South
Gusts 3.0 mph

Today
High -- | Low -- °F
--% Chance of Precip.
Yesterday
High -- | Low -- °F
Precip. -- in
Pressure 30.13 in
Visibility 10.0 miles
Clouds Overcast 1200 ft
Windchill 48 °F
Dew Point 46 °F
Humidity 94%
Rainfall in
Snow Depth Not available.
7:17 AM 5:31 PM
Waxing Crescent, 41% visible
METAR KTIW 141253Z AUTO 22006KT 10SM -RA OVC012 09/08 A3012 RMK AO2 RAB1158E26B45 SLP201 P0001 T00890078
Pressure 30.13 in
Visibility 10.0 miles
Clouds Overcast 1200 ft
Windchill 48 °F
Dew Point 46 °F
Humidity 94%
Rainfall in
Snow Depth Not available.
7:17 AM 5:31 PM
Waxing Crescent, 41% visible
METAR KTIW 141253Z AUTO 22006KT 10SM -RA OVC012 09/08 A3012 RMK AO2 RAB1158E26B45 SLP201 P0001 T00890078

10-Day Weather Forecast

Almanac

Astronomy

Feb. 14, 2016 Rise Set
Actual Time
Civil Twilight
Nautical Twilight
Astronomical Twilight
Moon
Length of Visible Light
Length of Day
Tomorrow will be .
, % of the Moon is Illuminated

Today's Extremes

State Highs State Lows

Community

WunderPhotos

Upload Photos

1,892,785 photos uploaded!

WunderBlog® & News

Nearby

Air Quality

  Air Quality AQ Index Pollutant
Not available.

Snow Depth

Station Depth Elevation

Earthquake Activity

City Distance Mag. Time & Date
Minimum magnitude displayed is 2.5.

Coastal Water Temperatures

Place Temperature

Stations

Nearby Weather Stations

Station Location Temp. Windchill Dew Point Humidity Wind Precip. Elev Updated Type
                   

Watches & Warnings

There are currently no watches in effect.